Time;durP1;ratioP1;P1;durP2;ratioP2;P2;SDS_P1;SDS_P2;PMS_P1;PMS_P2;Temp;Humidity;BMP_temperature;BMP_pressure;BME280_temperature;BME280_humidity;BME280_pressure;Samples;Min_cycle;Max_cycle;Signal;HPM_P1;HPM_P2
2022/06/03 00:01:29;;;;;;;5.32;2.90;;;;;;;12.27;62.45;101878.97;5046278;28;20052;-72
2022/06/03 00:04:10;;;;;;;3.25;2.70;;;;;;;12.24;62.98;101872.91;5035509;28;20571;-71
2022/06/03 00:07:27;;;;;;;4.05;2.53;;;;;;;12.23;63.13;101879.09;5038610;28;20587;-72
2022/06/03 00:10:25;;;;;;;4.10;3.20;;;;;;;12.18;63.03;101879.19;5033350;28;20042;-71
2022/06/03 00:13:46;;;;;;;4.07;3.08;;;;;;;12.15;63.17;101879.22;5040725;28;20439;-73
2022/06/03 00:16:38;;;;;;;3.85;2.97;;;;;;;12.13;63.45;101877.53;5034018;28;20046;-74
2022/06/03 00:19:29;;;;;;;3.80;2.80;;;;;;;12.13;63.17;101872.25;5042622;28;20578;-79
2022/06/03 00:22:14;;;;;;;3.63;2.70;;;;;;;12.11;63.41;101872.25;5032787;28;20089;-80
2022/06/03 00:25:22;;;;;;;4.65;2.97;;;;;;;12.11;63.49;101872.25;5052949;28;20050;-75
2022/06/03 00:27:58;;;;;;;3.92;3.00;;;;;;;12.08;63.39;101874.97;5035501;28;20125;-76
2022/06/03 00:30:59;;;;;;;5.13;3.00;;;;;;;12.07;63.38;101870.59;5033044;28;20039;-74
2022/06/03 00:33:48;;;;;;;5.13;3.22;;;;;;;12.08;63.62;101872.34;5036724;28;20526;-76
2022/06/03 00:36:27;;;;;;;3.70;3.05;;;;;;;12.08;63.55;101872.34;5034274;28;20117;-75
2022/06/03 00:39:21;;;;;;;3.67;3.00;;;;;;;12.07;63.59;101881.16;5032182;28;20046;-76
2022/06/03 00:42:40;;;;;;;3.45;2.67;;;;;;;12.06;63.56;101866.19;5036381;28;20121;-76
2022/06/03 00:45:32;;;;;;;6.57;3.20;;;;;;;12.02;63.72;101873.31;5038115;28;20071;-75
2022/06/03 00:48:11;;;;;;;3.38;3.08;;;;;;;12.01;63.72;101873.34;5045198;28;20037;-73
2022/06/03 00:51:49;;;;;;;5.32;3.00;;;;;;;12.00;63.76;101868.97;5037188;28;20065;-79
2022/06/03 00:54:48;;;;;;;4.20;2.85;;;;;;;11.95;64.09;101867.25;5000852;28;20058;-78
2022/06/03 00:58:03;;;;;;;3.92;3.05;;;;;;;11.92;64.16;101866.44;5045106;28;20038;-78
2022/06/03 01:01:05;;;;;;;3.87;3.03;;;;;;;11.89;64.33;101862.09;5035186;28;20940;-73
2022/06/03 01:03:59;;;;;;;5.35;3.17;;;;;;;11.91;64.30;101867.34;5031007;28;20076;-74
2022/06/03 01:07:03;;;;;;;4.82;3.50;;;;;;;11.86;64.48;101856.88;5034046;28;20041;-74
2022/06/03 01:10:01;;;;;;;4.43;3.38;;;;;;;11.84;64.48;101861.31;5036589;28;20052;-74
2022/06/03 01:12:57;;;;;;;3.72;3.08;;;;;;;11.81;64.54;101862.25;5048520;28;20088;-73
2022/06/03 01:16:31;;;;;;;4.40;3.33;;;;;;;11.78;64.87;101846.44;5036755;28;20056;-73
2022/06/03 01:19:50;;;;;;;4.88;3.45;;;;;;;11.75;64.92;101851.78;5041245;28;20062;-73
2022/06/03 01:22:58;;;;;;;3.40;3.00;;;;;;;11.73;65.26;101856.25;5035662;28;20033;-73
2022/06/03 01:26:26;;;;;;;4.55;3.55;;;;;;;11.70;65.19;101848.38;5042401;28;20091;-74
2022/06/03 01:29:43;;;;;;;6.18;3.28;;;;;;;11.68;65.41;101850.16;5009830;28;20161;-74
2022/06/03 01:32:55;;;;;;;3.88;3.40;;;;;;;11.68;65.46;101841.38;5013252;28;20075;-75
2022/06/03 01:35:52;;;;;;;4.20;3.78;;;;;;;11.68;65.73;101851.94;5013433;28;20093;-74
2022/06/03 01:38:36;;;;;;;4.30;3.78;;;;;;;11.66;65.68;101838.75;5037765;28;20037;-75
2022/06/03 01:42:10;;;;;;;5.03;3.83;;;;;;;11.68;65.72;101841.38;5035338;28;20037;-75
2022/06/03 01:45:00;;;;;;;4.35;3.78;;;;;;;11.68;65.89;101836.94;5036055;28;20088;-76
2022/06/03 01:47:30;;;;;;;5.63;3.90;;;;;;;11.68;65.87;101839.59;5048605;28;20034;-77
2022/06/03 01:50:28;;;;;;;4.88;4.38;;;;;;;11.71;65.67;101831.63;5033176;28;20736;-75
2022/06/03 01:53:19;;;;;;;6.75;4.13;;;;;;;11.74;65.83;101822.75;5049038;28;20470;-77
2022/06/03 01:55:58;;;;;;;5.90;4.05;;;;;;;11.73;65.85;101821.91;5031339;28;20053;-76
2022/06/03 01:59:07;;;;;;;6.05;4.15;;;;;;;11.76;65.75;101820.97;5032229;28;20042;-76
2022/06/03 02:02:09;;;;;;;4.07;3.65;;;;;;;11.75;65.85;101822.72;5033001;28;20058;-76
2022/06/03 02:04:54;;;;;;;4.53;3.92;;;;;;;11.78;65.74;101814.75;5037016;28;20116;-77
2022/06/03 02:07:44;;;;;;;6.68;4.00;;;;;;;11.81;65.51;101813.81;5036260;28;20034;-77
2022/06/03 02:10:58;;;;;;;3.92;3.53;;;;;;;11.84;65.36;101805.81;5034129;28;20097;-77
2022/06/03 02:14:09;;;;;;;4.60;3.60;;;;;;;11.92;65.05;101805.69;5034290;28;20060;-76
2022/06/03 02:17:11;;;;;;;4.75;4.03;;;;;;;11.95;64.89;101800.34;5040551;28;20046;-75
2022/06/03 02:20:06;;;;;;;4.75;4.25;;;;;;;11.96;65.08;101805.56;5040020;28;20406;-79
2022/06/03 02:23:43;;;;;;;4.43;3.90;;;;;;;11.99;64.90;101809.09;5035716;28;20042;-77
2022/06/03 02:26:39;;;;;;;;;;;;;;;11.94;64.85;101802.09;5046388;28;20785;-77
2022/06/03 02:33:13;;;;;;;4.00;3.60;;;;;;;11.95;65.11;101806.47;5045020;28;20045;-74
2022/06/03 02:35:46;;;;;;;6.38;3.90;;;;;;;11.94;65.12;101806.53;5038445;28;20046;-74
2022/06/03 02:39:11;;;;;;;4.18;3.63;;;;;;;11.95;65.04;101802.97;5037898;28;20927;-74
2022/06/03 02:42:15;;;;;;;5.10;4.13;;;;;;;11.93;65.08;101797.69;5040725;28;20033;-74
2022/06/03 02:45:15;;;;;;;4.90;3.97;;;;;;;11.96;65.09;101787.09;5036562;28;20045;-75
2022/06/03 02:48:30;;;;;;;4.47;4.07;;;;;;;11.96;65.01;101775.63;5043235;28;20038;-74
2022/06/03 02:51:18;;;;;;;7.18;4.18;;;;;;;11.93;65.13;101781.00;5046063;28;20048;-74
2022/06/03 02:54:14;;;;;;;5.47;4.15;;;;;;;11.90;65.27;101786.34;5043474;28;20419;-74
2022/06/03 02:57:01;;;;;;;5.00;4.25;;;;;;;11.86;65.51;101782.88;5047702;28;20407;-75
2022/06/03 03:00:19;;;;;;;5.20;4.00;;;;;;;11.85;65.62;101782.94;5048935;28;20538;-74
2022/06/03 03:03:11;;;;;;;4.97;4.05;;;;;;;11.83;65.60;101782.09;5038126;28;20535;-74
2022/06/03 03:06:18;;;;;;;5.55;4.38;;;;;;;11.83;65.41;101782.09;5032513;28;20056;-78
2022/06/03 03:09:27;;;;;;;4.65;4.10;;;;;;;11.79;65.50;101790.06;5046065;28;20045;-77
2022/06/03 03:12:35;;;;;;;6.70;4.60;;;;;;;11.79;65.76;101795.34;5039235;28;20140;-77
2022/06/03 03:15:45;;;;;;;5.78;4.85;;;;;;;11.76;65.74;101798.03;5041946;28;20423;-76
2022/06/03 03:18:18;;;;;;;4.88;4.20;;;;;;;11.73;65.97;101791.97;5046466;28;20056;-75
2022/06/03 03:21:35;;;;;;;6.70;4.55;;;;;;;11.72;65.92;101803.41;5043956;28;20049;-78
2022/06/03 03:24:35;;;;;;;6.93;4.55;;;;;;;11.72;66.05;101803.41;5038725;28;20558;-77
2022/06/03 03:27:52;;;;;;;5.22;4.35;;;;;;;11.69;66.10;101800.84;5035398;28;20514;-76
2022/06/03 03:30:38;;;;;;;6.43;4.63;;;;;;;11.65;66.07;101800.03;5033931;28;20042;-77
2022/06/03 03:33:55;;;;;;;5.60;5.00;;;;;;;11.64;66.09;101803.59;5033274;28;20072;-77
2022/06/03 03:36:47;;;;;;;5.82;4.53;;;;;;;11.59;66.29;101790.47;5038714;28;20500;-75
2022/06/03 03:40:01;;;;;;;5.47;4.57;;;;;;;11.58;66.34;101801.06;5045842;28;20117;-76
2022/06/03 03:42:49;;;;;;;5.63;4.85;;;;;;;11.56;66.41;101797.56;5044220;28;20052;-76
2022/06/03 03:46:06;;;;;;;6.80;4.80;;;;;;;11.63;66.36;101794.78;5046580;28;20615;-77
2022/06/03 03:49:04;;;;;;;5.60;5.03;;;;;;;11.68;66.35;101788.56;5038368;28;20117;-77
2022/06/03 03:51:45;;;;;;;6.47;5.13;;;;;;;11.62;66.52;101789.53;5039223;28;20050;-75
2022/06/03 03:54:33;;;;;;;6.43;4.90;;;;;;;11.55;66.59;101794.06;5036245;28;20041;-77
2022/06/03 03:57:43;;;;;;;6.55;4.95;;;;;;;11.44;66.92;101786.38;5038955;28;20038;-76
2022/06/03 04:01:16;;;;;;;8.07;4.97;;;;;;;11.39;67.34;101787.34;5033626;28;20052;-78
2022/06/03 04:04:27;;;;;;;6.20;4.97;;;;;;;11.39;67.46;101782.06;5037402;28;20053;-77
2022/06/03 04:07:22;;;;;;;6.82;5.30;;;;;;;11.39;67.41;101777.63;5034619;28;20045;-77
2022/06/03 04:10:21;;;;;;;6.00;5.00;;;;;;;11.41;67.43;101780.25;5046908;28;20049;-79
2022/06/03 04:13:41;;;;;;;7.93;5.50;;;;;;;11.42;67.61;101779.34;5033018;28;20049;-80
2022/06/03 04:16:27;;;;;;;6.53;5.50;;;;;;;11.43;67.61;101781.97;5048460;28;20121;-79
2022/06/03 04:19:24;;;;;;;7.57;5.20;;;;;;;11.46;67.57;101773.97;5040546;28;20073;-73
2022/06/03 04:22:41;;;;;;;7.80;5.72;;;;;;;11.47;67.74;101770.44;5034849;28;20576;-73
2022/06/03 04:25:47;;;;;;;7.70;5.22;;;;;;;11.50;67.81;101774.78;5032229;28;20508;-73
2022/06/03 04:28:43;;;;;;;5.57;5.07;;;;;;;11.55;67.55;101767.66;5038211;28;20045;-75
2022/06/03 04:31:41;;;;;;;6.90;5.80;;;;;;;11.61;67.38;101769.31;5049068;28;20042;-73
2022/06/03 04:34:46;;;;;;;6.18;5.30;;;;;;;11.64;67.33;101769.25;5054807;28;20041;-73
2022/06/03 04:37:45;;;;;;;10.23;5.60;;;;;;;11.70;67.27;101770.91;5053373;28;20046;-72
2022/06/03 04:40:59;;;;;;;8.75;5.70;;;;;;;11.80;67.25;101762.75;5059095;28;20042;-76
2022/06/03 04:44:26;;;;;;;7.43;5.72;;;;;;;11.89;66.91;101758.16;5044504;28;20038;-77
2022/06/03 04:47:08;;;;;;;5.97;5.28;;;;;;;12.00;66.71;101763.28;5043579;28;20058;-75
2022/06/03 04:50:17;;;;;;;5.97;5.30;;;;;;;12.25;66.03;101758.31;5037611;28;20125;-77
2022/06/03 04:53:53;;;;;;;8.40;5.78;;;;;;;12.30;65.98;101767.00;5044642;28;20038;-76
2022/06/03 04:57:09;;;;;;;6.35;5.13;;;;;;;12.40;65.97;101765.03;5044388;28;20060;-76
2022/06/03 05:00:08;;;;;;;6.22;5.35;;;;;;;12.54;65.12;101775.28;5049641;28;20064;-77
2022/06/03 05:03:42;;;;;;;6.60;5.40;;;;;;;12.68;65.00;101775.78;5048982;28;20040;-76
2022/06/03 05:06:49;;;;;;;5.70;5.15;;;;;;;12.82;64.86;101770.16;5048735;28;20060;-76
2022/06/03 05:09:50;;;;;;;6.78;5.15;;;;;;;12.97;64.38;101760.97;5029087;28;20060;-76
2022/06/03 05:12:47;;;;;;;6.45;5.25;;;;;;;13.54;62.89;101770.97;5041714;28;20530;-77
2022/06/03 05:16:18;;;;;;;6.00;5.20;;;;;;;14.75;59.22;101770.91;5057777;28;20506;-76
2022/06/03 05:18:56;;;;;;;7.53;5.05;;;;;;;14.71;58.97;101764.81;5050432;28;20057;-75
2022/06/03 05:21:38;;;;;;;6.82;4.90;;;;;;;15.60;56.67;101753.81;5051152;28;20045;-77
2022/06/03 05:24:39;;;;;;;4.65;4.13;;;;;;;17.47;51.44;101754.25;5035198;28;20458;-76
2022/06/03 05:28:04;;;;;;;4.68;4.15;;;;;;;20.05;45.90;101744.13;5050820;28;20463;-78
2022/06/03 05:30:53;;;;;;;5.20;4.18;;;;;;;21.62;41.62;101738.53;5047230;28;20108;-76
2022/06/03 05:33:38;;;;;;;5.45;4.00;;;;;;;22.64;38.70;101740.00;5042561;28;20134;-77
2022/06/03 05:36:53;;;;;;;4.40;3.70;;;;;;;23.34;37.59;101737.97;5031763;28;20042;-75
2022/06/03 05:39:32;;;;;;;4.25;3.42;;;;;;;23.94;35.43;101739.03;5031486;28;20543;-76
2022/06/03 05:42:42;;;;;;;4.35;3.80;;;;;;;24.39;34.92;101737.63;5039768;28;20073;-75
2022/06/03 05:45:34;;;;;;;4.80;3.53;;;;;;;25.05;33.49;101739.81;5033024;28;20042;-75
2022/06/03 05:48:54;;;;;;;4.63;3.30;;;;;;;25.44;32.39;101745.78;5032331;28;20121;-75
2022/06/03 05:51:47;;;;;;;4.63;3.70;;;;;;;25.95;32.04;101730.03;5043389;28;20060;-74
2022/06/03 05:54:38;;;;;;;3.67;3.28;;;;;;;26.34;31.06;101738.56;5047978;28;20049;-75
2022/06/03 05:57:33;;;;;;;4.15;3.20;;;;;;;26.54;30.30;101730.63;5050823;28;20045;-74
2022/06/03 06:01:04;;;;;;;3.42;3.10;;;;;;;26.35;30.47;101740.28;5047964;28;20042;-74
2022/06/03 06:04:06;;;;;;;4.53;3.30;;;;;;;26.45;30.13;101726.84;5044381;28;20053;-75
2022/06/03 06:06:59;;;;;;;3.20;2.90;;;;;;;26.69;30.16;101721.19;5032066;28;20037;-75
2022/06/03 06:09:51;;;;;;;3.25;2.95;;;;;;;27.05;29.81;101719.06;5044772;28;20049;-76
2022/06/03 06:12:41;;;;;;;4.07;2.78;;;;;;;27.01;29.87;101719.44;5042714;28;20053;-76
2022/06/03 06:15:29;;;;;;;3.58;3.10;;;;;;;25.72;31.15;101728.22;5046165;28;20046;-76
2022/06/03 06:18:34;;;;;;;3.95;3.05;;;;;;;22.81;35.77;101733.50;5035337;28;20116;-75
2022/06/03 06:21:43;;;;;;;4.22;3.35;;;;;;;20.31;40.48;101739.97;5031889;28;20049;-75
2022/06/03 06:24:23;;;;;;;4.50;3.55;;;;;;;18.76;44.38;101754.41;5042539;28;20523;-74
2022/06/03 06:27:34;;;;;;;4.10;3.40;;;;;;;17.96;46.54;101745.81;5046845;28;20514;-74
2022/06/03 06:30:21;;;;;;;4.50;3.72;;;;;;;17.35;49.27;101742.31;5046821;28;20120;-72
2022/06/03 06:33:24;;;;;;;7.15;4.35;;;;;;;16.95;50.89;101746.72;5040311;28;20060;-72
2022/06/03 06:36:50;;;;;;;4.68;4.18;;;;;;;16.66;51.06;101745.28;5038976;28;20508;-73
2022/06/03 06:39:47;;;;;;;5.63;4.00;;;;;;;16.49;52.20;101753.97;5052633;28;20064;-72
2022/06/03 06:43:25;;;;;;;5.57;4.50;;;;;;;16.34;52.39;101744.81;5051790;28;20034;-72
2022/06/03 06:46:04;;;;;;;4.18;3.78;;;;;;;16.29;52.73;101751.16;5054158;28;20058;-73
2022/06/03 06:49:02;;;;;;;5.03;4.15;;;;;;;16.23;53.04;101747.88;5031367;28;20046;-73
2022/06/03 06:51:52;;;;;;;5.18;4.03;;;;;;;16.20;53.44;101756.84;5031148;28;20068;-74
2022/06/03 06:54:38;;;;;;;4.63;4.00;;;;;;;16.25;53.66;101752.25;5034176;28;20030;-73
2022/06/03 06:57:25;;;;;;;5.20;4.43;;;;;;;16.38;53.41;101757.06;5034037;28;20772;-73
2022/06/03 07:00:19;;;;;;;5.80;4.05;;;;;;;16.43;53.41;101757.75;5034967;28;20514;-73
2022/06/03 07:02:56;;;;;;;6.22;4.30;;;;;;;16.48;53.49;101754.88;5043738;28;20042;-73
2022/06/03 07:05:41;;;;;;;4.25;3.85;;;;;;;16.60;52.84;101747.25;5054683;28;20049;-72
2022/06/03 07:08:36;;;;;;;6.13;4.18;;;;;;;16.61;53.35;101745.47;5053316;28;20503;-74
2022/06/03 07:11:14;;;;;;;6.35;4.13;;;;;;;16.75;53.65;101750.22;5054458;28;20037;-75
2022/06/03 07:13:51;;;;;;;5.85;3.97;;;;;;;16.92;53.09;101744.19;5054526;28;20056;-73
2022/06/03 07:19:48;;;;;;;4.13;3.70;;;;;;;17.22;53.02;101743.81;5053101;28;20558;-73
2022/06/03 07:22:33;;;;;;;5.50;3.80;;;;;;;17.38;52.60;101736.03;5046574;28;20046;-74
2022/06/03 07:25:26;;;;;;;6.63;4.10;;;;;;;17.49;52.36;101736.41;5052366;28;20089;-73
2022/06/03 07:28:27;;;;;;;4.78;3.90;;;;;;;17.61;51.85;101745.63;5053800;28;20046;-73
2022/06/03 07:31:15;;;;;;;4.40;4.00;;;;;;;17.68;51.19;101730.22;5054193;28;20037;-73
2022/06/03 07:34:11;;;;;;;4.90;3.90;;;;;;;17.68;50.96;101735.56;5054098;28;20045;-72
2022/06/03 07:37:10;;;;;;;6.25;3.78;;;;;;;17.82;50.56;101732.25;5034075;28;20610;-73
2022/06/03 07:40:00;;;;;;;5.30;4.10;;;;;;;17.84;50.18;101725.03;5033381;28;20144;-72
2022/06/03 07:42:52;;;;;;;4.18;3.58;;;;;;;17.85;49.93;101718.78;5034042;28;20045;-74
2022/06/03 07:45:35;;;;;;;4.10;3.60;;;;;;;17.91;50.57;101709.59;5035021;28;20045;-73
2022/06/03 07:48:11;;;;;;;6.47;4.22;;;;;;;18.07;50.23;101712.41;5042798;28;20088;-73
2022/06/03 07:51:05;;;;;;;5.38;3.97;;;;;;;18.19;50.17;101717.16;5040185;28;20479;-74
2022/06/03 07:54:03;;;;;;;5.30;3.35;;;;;;;18.28;50.65;101711.38;5045684;28;20301;-73
2022/06/03 07:56:37;;;;;;;4.13;3.63;;;;;;;18.56;50.13;101714.50;5043804;28;20628;-74
2022/06/03 07:59:12;;;;;;;3.88;3.33;;;;;;;18.71;49.22;101718.19;5034580;28;20042;-72
2022/06/03 08:01:43;;;;;;;4.82;3.50;;;;;;;18.70;49.41;101713.78;5040755;28;20522;-73
2022/06/03 08:04:32;;;;;;;5.28;3.50;;;;;;;18.83;49.00;101714.03;5034234;28;20572;-74
2022/06/03 08:12:39;;;;;;;7.18;3.40;;;;;;;19.33;48.89;101712.34;5042511;28;20932;-73
2022/06/03 08:15:22;;;;;;;6.85;3.53;;;;;;;19.53;47.48;101714.81;5034021;28;20034;-74
2022/06/03 08:17:51;;;;;;;3.70;3.25;;;;;;;19.48;48.22;101713.34;5046311;28;20060;-74
2022/06/03 08:20:24;;;;;;;4.75;3.10;;;;;;;19.58;47.79;101708.38;5053887;28;20040;-72
2022/06/03 08:22:53;;;;;;;3.75;2.85;;;;;;;19.76;46.53;101699.31;5043855;28;20048;-73
2022/06/03 08:25:30;;;;;;;7.13;3.10;;;;;;;19.83;45.63;101697.16;5033425;28;20104;-73
2022/06/03 08:27:59;;;;;;;5.47;2.88;;;;;;;19.88;46.89;101695.13;5037183;28;20841;-72
2022/06/03 08:30:29;;;;;;;3.58;2.58;;;;;;;20.06;46.64;101684.31;5054023;28;20038;-74
2022/06/03 08:33:07;;;;;;;3.92;2.80;;;;;;;20.23;46.02;101684.22;5053118;28;20041;-72
2022/06/03 08:35:41;;;;;;;3.75;2.83;;;;;;;20.39;45.32;101689.56;5037352;28;20044;-73
2022/06/03 08:38:42;;;;;;;3.20;2.78;;;;;;;20.46;44.81;101682.88;5039264;28;20088;-72
2022/06/03 08:41:44;;;;;;;4.57;3.20;;;;;;;20.53;44.35;101674.47;5047472;28;20060;-73
2022/06/03 08:44:37;;;;;;;4.18;2.45;;;;;;;20.60;43.62;101676.69;5053076;28;20048;-72
2022/06/03 08:47:54;;;;;;;4.68;2.72;;;;;;;20.61;43.85;101677.53;5043881;28;20780;-73
2022/06/03 08:50:51;;;;;;;3.42;2.95;;;;;;;20.59;44.90;101679.47;5053230;28;20434;-73
2022/06/03 08:53:46;;;;;;;3.58;2.78;;;;;;;20.62;43.62;101684.63;5046752;28;20431;-73
2022/06/03 08:56:24;;;;;;;;;;;;;;;20.53;44.65;101687.84;5039088;28;20073;-72
2022/06/03 08:58:56;;;;;;;5.47;2.85;;;;;;;20.72;43.64;101682.28;5033414;28;20370;-73
2022/06/03 09:01:33;;;;;;;3.35;2.80;;;;;;;20.76;44.05;101675.78;5033404;28;20410;-74
2022/06/03 09:04:22;;;;;;;3.60;2.75;;;;;;;20.98;44.06;101678.06;5053307;28;20514;-73
2022/06/03 09:07:09;;;;;;;4.32;2.33;;;;;;;21.16;44.29;101670.69;5051381;28;20060;-73
2022/06/03 09:10:47;;;;;;;5.93;2.40;;;;;;;21.46;42.18;101672.41;5052571;28;20038;-73
2022/06/03 09:13:30;;;;;;;2.60;2.40;;;;;;;21.81;41.50;101673.81;5017799;28;20507;-72
2022/06/03 09:16:00;;;;;;;3.33;2.38;;;;;;;21.83;41.71;101677.25;5035976;28;20049;-73
2022/06/03 09:18:39;;;;;;;5.25;2.30;;;;;;;22.04;40.61;101675.00;5052649;28;20172;-72
2022/06/03 09:21:13;;;;;;;2.00;1.80;;;;;;;22.08;39.79;101667.59;5051323;28;20592;-72
2022/06/03 09:23:50;;;;;;;3.17;1.50;;;;;;;22.15;39.18;101674.28;5048171;28;20042;-71
2022/06/03 09:26:32;;;;;;;1.60;1.33;;;;;;;22.14;39.82;101669.88;5044243;28;20049;-72
2022/06/03 09:29:02;;;;;;;3.65;2.20;;;;;;;22.28;39.89;101668.97;5031827;28;20038;-73
2022/06/03 09:31:30;;;;;;;3.33;2.10;;;;;;;22.46;39.11;101664.19;5036295;28;20081;-72
2022/06/03 09:33:59;;;;;;;1.65;1.48;;;;;;;22.45;38.93;101663.34;5052179;28;20638;-73
2022/06/03 09:36:28;;;;;;;1.67;1.15;;;;;;;22.56;37.37;101659.91;5052707;28;20375;-72
2022/06/03 09:39:17;;;;;;;3.00;1.73;;;;;;;22.55;37.24;101660.88;5053159;28;20044;-73
2022/06/03 09:41:55;;;;;;;2.33;1.80;;;;;;;22.59;38.75;101661.53;5041936;28;20045;-72
2022/06/03 09:44:26;;;;;;;3.63;1.73;;;;;;;22.74;37.40;101659.63;5039981;28;20097;-73
2022/06/03 09:47:04;;;;;;;2.35;1.70;;;;;;;22.73;37.39;101655.22;5047011;28;20497;-72
2022/06/03 09:49:32;;;;;;;2.05;1.50;;;;;;;22.81;36.52;101660.91;5038540;28;20064;-72
2022/06/03 09:52:03;;;;;;;2.70;1.90;;;;;;;22.87;36.86;101662.31;5049878;28;20466;-73
2022/06/03 09:54:39;;;;;;;1.60;1.50;;;;;;;22.87;38.45;101660.47;5068135;28;20490;-74
2022/06/03 09:57:13;;;;;;;3.72;1.70;;;;;;;23.03;37.43;101660.25;5051882;28;20168;-74
2022/06/03 10:00:03;;;;;;;2.58;1.63;;;;;;;23.15;35.89;101642.41;5051345;28;20080;-74
2022/06/03 10:02:39;;;;;;;1.75;1.60;;;;;;;23.26;34.96;101647.91;5040919;28;20041;-74
2022/06/03 10:05:08;;;;;;;1.80;1.52;;;;;;;23.28;35.85;101639.75;5050779;28;20049;-75
2022/06/03 10:07:36;;;;;;;3.75;1.85;;;;;;;23.35;35.42;101643.69;5052335;28;20045;-74
2022/06/03 10:13:00;;;;;;;1.77;1.27;;;;;;;23.37;35.39;101644.47;5031923;28;20058;-74
2022/06/03 10:15:56;;;;;;;2.75;1.40;;;;;;;23.35;36.06;101643.69;5046162;28;20638;-74
2022/06/03 10:18:32;;;;;;;1.70;1.20;;;;;;;23.46;35.29;101637.53;5047230;28;20049;-73
2022/06/03 10:21:20;;;;;;;3.17;1.27;;;;;;;23.58;35.02;101635.81;5038944;28;20452;-72
2022/06/03 10:23:57;;;;;;;2.92;1.70;;;;;;;23.64;35.08;101632.66;5034666;28;20057;-73
2022/06/03 10:26:49;;;;;;;2.15;1.50;;;;;;;23.60;35.87;101628.47;5039654;28;20041;-73
2022/06/03 10:29:21;;;;;;;2.20;1.42;;;;;;;23.75;34.97;101631.00;5051888;28;20534;-72
2022/06/03 10:32:00;;;;;;;4.38;1.70;;;;;;;23.91;34.93;101614.56;5038132;28;20120;-73
2022/06/03 10:34:38;;;;;;;2.33;1.40;;;;;;;23.94;34.57;101614.34;5044999;28;20037;-73
2022/06/03 10:37:10;;;;;;;2.65;1.25;;;;;;;23.99;34.18;101623.81;5043555;28;20046;-73
2022/06/03 10:39:43;;;;;;;1.88;1.10;;;;;;;23.96;34.74;101599.81;5035569;28;20530;-73
2022/06/03 10:42:23;;;;;;;2.75;1.13;;;;;;;24.18;32.31;101611.66;5035574;28;20100;-74
2022/06/03 10:44:57;;;;;;;2.30;1.50;;;;;;;24.21;32.68;101597.09;5037294;28;20041;-72
2022/06/03 10:47:38;;;;;;;2.03;1.27;;;;;;;24.07;33.28;101595.44;5035660;28;20042;-73
2022/06/03 10:50:25;;;;;;;2.75;1.10;;;;;;;24.15;32.59;101585.81;5052203;28;20048;-72
2022/06/03 11:02:01;;;;;;;1.88;0.80;;;;;;;24.26;30.21;101586.84;5051176;28;20038;-73
2022/06/03 11:04:39;;;;;;;1.15;0.90;;;;;;;24.42;29.86;101590.03;5044177;28;20072;-73
2022/06/03 11:07:24;;;;;;;1.05;0.82;;;;;;;24.57;29.23;101587.16;5036943;28;20056;-73
2022/06/03 11:10:10;;;;;;;1.83;1.13;;;;;;;24.65;30.21;101584.69;5053488;28;20058;-74
2022/06/03 11:13:00;;;;;;;1.33;1.10;;;;;;;24.73;30.44;101576.91;5038552;28;20057;-73
2022/06/03 11:15:37;;;;;;;2.85;1.08;;;;;;;24.82;29.43;101578.00;5045754;28;20046;-72
2022/06/03 11:18:17;;;;;;;1.55;0.80;;;;;;;24.87;29.56;101585.75;5041138;28;20121;-74
2022/06/03 11:20:51;;;;;;;2.00;1.05;;;;;;;25.07;28.25;101584.13;5045700;28;20041;-72
2022/06/03 11:23:20;;;;;;;5.40;1.10;;;;;;;25.18;27.74;101581.41;5050141;28;20988;-73
2022/06/03 11:25:52;;;;;;;3.08;1.30;;;;;;;25.25;28.93;101573.69;5043944;28;20038;-72
2022/06/03 11:28:48;;;;;;;5.45;1.30;;;;;;;25.40;29.05;101583.25;5048632;28;20052;-73
2022/06/03 11:31:29;;;;;;;3.22;1.40;;;;;;;25.48;28.36;101574.53;5055513;28;20507;-73
2022/06/03 11:34:19;;;;;;;5.00;1.95;;;;;;;25.41;29.93;101567.94;5054422;28;20037;-72
2022/06/03 11:36:58;;;;;;;9.23;2.10;;;;;;;25.56;31.06;101572.03;5042644;28;20048;-75
2022/06/03 11:39:39;;;;;;;2.47;1.33;;;;;;;25.74;28.58;101568.81;5058601;28;20427;-71
2022/06/03 11:42:17;;;;;;;1.50;1.20;;;;;;;25.72;28.63;101560.81;5059926;28;20022;-73
2022/06/03 11:45:11;;;;;;;2.22;1.33;;;;;;;25.50;29.24;101563.59;5055850;28;20040;-72
2022/06/03 11:48:02;;;;;;;3.10;1.25;;;;;;;25.24;29.57;101558.47;5065713;28;20042;-73
2022/06/03 11:50:32;;;;;;;3.13;1.50;;;;;;;25.24;29.38;101548.53;5066490;28;20686;-73
2022/06/03 11:52:59;;;;;;;3.38;1.40;;;;;;;25.26;30.46;101554.66;5049800;28;20048;-73
2022/06/03 11:55:32;;;;;;;1.48;1.30;;;;;;;25.32;31.07;101552.47;5038268;28;20053;-74
2022/06/03 11:58:44;;;;;;;2.97;1.55;;;;;;;25.40;29.64;101558.13;5035409;28;20061;-74
2022/06/03 12:01:33;;;;;;;1.75;1.27;;;;;;;25.26;30.55;101560.06;5050285;28;20052;-73
2022/06/03 12:04:31;;;;;;;1.48;1.30;;;;;;;25.50;30.10;101553.69;5034797;28;20135;-73
2022/06/03 12:07:28;;;;;;;1.70;1.30;;;;;;;25.73;29.59;101554.44;5034919;28;20045;-72
2022/06/03 12:10:28;;;;;;;1.10;1.00;;;;;;;25.90;29.12;101552.16;5034367;28;20064;-75
2022/06/03 12:13:21;;;;;;;2.75;1.20;;;;;;;25.97;28.99;101550.66;5034042;28;20156;-73
2022/06/03 12:15:53;;;;;;;1.40;1.00;;;;;;;26.05;28.62;101548.16;5033441;28;20508;-73
2022/06/03 12:18:32;;;;;;;1.33;1.00;;;;;;;26.19;29.48;101560.53;5035292;28;20054;-74
2022/06/03 12:21:32;;;;;;;1.40;1.08;;;;;;;26.49;28.58;101555.31;5034000;28;20048;-72
2022/06/03 12:24:29;;;;;;;3.13;0.90;;;;;;;26.72;28.51;101560.53;5034570;28;20042;-73
2022/06/03 12:27:03;;;;;;;2.45;1.20;;;;;;;26.80;28.22;101555.34;5039068;28;20050;-72
2022/06/03 12:29:45;;;;;;;2.47;1.08;;;;;;;26.84;27.84;101553.22;5035015;28;20038;-72
2022/06/03 12:32:28;;;;;;;3.33;1.23;;;;;;;26.86;27.75;101543.97;5038173;28;20077;-73
2022/06/03 12:35:43;;;;;;;2.97;1.17;;;;;;;26.96;27.07;101544.03;5048019;28;20045;-73
2022/06/03 12:38:20;;;;;;;2.40;0.90;;;;;;;26.86;28.12;101543.97;5038669;28;20041;-72
2022/06/03 12:40:52;;;;;;;2.28;1.33;;;;;;;26.96;28.02;101549.44;5042748;28;20116;-74
2022/06/03 12:43:29;;;;;;;2.40;1.30;;;;;;;26.85;27.39;101534.16;5046053;28;20041;-74
2022/06/03 12:46:07;;;;;;;1.52;1.10;;;;;;;26.59;27.44;101537.28;5044929;28;20406;-73
2022/06/03 12:48:43;;;;;;;2.00;1.10;;;;;;;26.36;28.23;101539.28;5043769;28;20085;-76
2022/06/03 12:51:33;;;;;;;1.15;1.00;;;;;;;26.19;28.97;101538.06;5038182;28;20034;-72
2022/06/03 12:54:16;;;;;;;5.88;1.20;;;;;;;26.14;29.36;101535.75;5039430;28;20042;-72
2022/06/03 12:56:56;;;;;;;2.08;1.20;;;;;;;26.30;28.97;101537.97;5042699;28;20172;-72
2022/06/03 12:59:42;;;;;;;1.38;1.00;;;;;;;26.48;29.48;101521.16;5047799;28;20037;-73
2022/06/03 13:02:18;;;;;;;1.73;1.00;;;;;;;26.89;29.46;101513.09;5048252;28;20049;-74
2022/06/03 13:04:54;;;;;;;1.63;1.20;;;;;;;27.09;27.92;101524.84;5047343;28;20034;-74
2022/06/03 13:07:27;;;;;;;2.97;1.10;;;;;;;27.11;28.24;101521.00;5045383;28;20042;-74
2022/06/03 13:10:02;;;;;;;4.00;1.30;;;;;;;27.41;26.28;101518.34;5040900;28;20523;-73
2022/06/03 13:12:33;;;;;;;2.00;1.00;;;;;;;27.01;27.52;101517.41;5044641;28;20491;-74
2022/06/03 13:15:29;;;;;;;7.10;1.67;;;;;;;26.96;28.69;101516.97;5046928;28;20130;-72
2022/06/03 13:21:00;;;;;;;2.55;1.00;;;;;;;27.30;27.68;101513.06;5038073;28;20052;-72
2022/06/03 13:23:51;;;;;;;1.83;1.00;;;;;;;27.37;28.14;101514.19;5032315;28;20037;-73
2022/06/03 13:26:22;;;;;;;1.83;0.93;;;;;;;27.56;26.36;101505.28;5039935;28;20087;-74
2022/06/03 13:28:59;;;;;;;1.92;0.95;;;;;;;27.43;26.80;101506.41;5042037;28;20049;-73
2022/06/03 13:31:42;;;;;;;3.08;0.95;;;;;;;27.31;28.19;101507.50;5049751;28;20045;-72
2022/06/03 13:34:12;;;;;;;1.95;1.00;;;;;;;27.48;26.97;101507.81;5032881;28;20122;-72
2022/06/03 13:36:51;;;;;;;2.88;0.80;;;;;;;27.61;26.29;101504.84;5052325;28;20088;-72
2022/06/03 13:39:24;;;;;;;1.10;0.90;;;;;;;27.42;26.91;101510.06;5052092;28;20041;-74
2022/06/03 13:45:02;;;;;;;2.13;0.98;;;;;;;27.27;26.15;101515.03;5031758;28;20042;-73
2022/06/03 13:47:34;;;;;;;1.92;0.95;;;;;;;26.95;26.63;101517.97;5048428;28;20438;-73
2022/06/03 13:50:30;;;;;;;3.28;0.95;;;;;;;27.09;28.28;101512.16;5048209;28;20503;-74